sensor_id;sensor_type;location;lat;lon;timestamp;temperature;humidity
10654;DHT22;5375;51.250;6.776;2023-03-12T00:01:37;18.60;42.40
10654;DHT22;5375;51.250;6.776;2023-03-12T00:04:04;18.60;42.30
10654;DHT22;5375;51.250;6.776;2023-03-12T00:06:30;18.60;42.30
10654;DHT22;5375;51.250;6.776;2023-03-12T00:08:57;18.60;42.20
10654;DHT22;5375;51.250;6.776;2023-03-12T00:11:23;18.60;42.20
10654;DHT22;5375;51.250;6.776;2023-03-12T00:13:55;18.60;42.20
10654;DHT22;5375;51.250;6.776;2023-03-12T00:16:21;18.60;42.20
10654;DHT22;5375;51.250;6.776;2023-03-12T00:18:49;18.60;42.20
10654;DHT22;5375;51.250;6.776;2023-03-12T00:21:15;18.60;42.20
10654;DHT22;5375;51.250;6.776;2023-03-12T00:23:40;18.60;42.10
10654;DHT22;5375;51.250;6.776;2023-03-12T00:26:11;18.50;42.00
10654;DHT22;5375;51.250;6.776;2023-03-12T00:28:37;18.50;41.90
10654;DHT22;5375;51.250;6.776;2023-03-12T00:31:13;18.50;42.00
10654;DHT22;5375;51.250;6.776;2023-03-12T00:33:39;18.50;41.90
10654;DHT22;5375;51.250;6.776;2023-03-12T00:36:05;18.50;42.00
10654;DHT22;5375;51.250;6.776;2023-03-12T00:38:31;18.60;42.00
10654;DHT22;5375;51.250;6.776;2023-03-12T00:40:57;18.50;41.90
10654;DHT22;5375;51.250;6.776;2023-03-12T00:43:22;18.50;41.90
10654;DHT22;5375;51.250;6.776;2023-03-12T00:45:48;18.50;41.80
10654;DHT22;5375;51.250;6.776;2023-03-12T00:48:14;18.50;42.00
10654;DHT22;5375;51.250;6.776;2023-03-12T00:50:39;18.40;42.40
10654;DHT22;5375;51.250;6.776;2023-03-12T00:53:05;18.50;41.80
10654;DHT22;5375;51.250;6.776;2023-03-12T00:55:31;18.50;41.80
10654;DHT22;5375;51.250;6.776;2023-03-12T00:57:56;18.50;41.80
10654;DHT22;5375;51.250;6.776;2023-03-12T01:00:22;18.50;41.80
10654;DHT22;5375;51.250;6.776;2023-03-12T01:02:48;18.50;41.70
10654;DHT22;5375;51.250;6.776;2023-03-12T01:05:13;18.50;41.70
10654;DHT22;5375;51.250;6.776;2023-03-12T01:07:39;18.50;41.70
10654;DHT22;5375;51.250;6.776;2023-03-12T01:10:06;18.50;41.70
10654;DHT22;5375;51.250;6.776;2023-03-12T01:12:32;18.50;41.70
10654;DHT22;5375;51.250;6.776;2023-03-12T01:14:58;18.50;41.60
10654;DHT22;5375;51.250;6.776;2023-03-12T01:17:23;18.50;41.60
10654;DHT22;5375;51.250;6.776;2023-03-12T01:19:49;18.50;41.70
10654;DHT22;5375;51.250;6.776;2023-03-12T01:22:14;18.50;41.60
10654;DHT22;5375;51.250;6.776;2023-03-12T01:24:40;18.50;41.60
10654;DHT22;5375;51.250;6.776;2023-03-12T01:27:06;18.50;41.50
10654;DHT22;5375;51.250;6.776;2023-03-12T01:29:31;18.40;41.50
10654;DHT22;5375;51.250;6.776;2023-03-12T01:31:57;18.50;41.50
10654;DHT22;5375;51.250;6.776;2023-03-12T01:34:23;18.50;41.50
10654;DHT22;5375;51.250;6.776;2023-03-12T01:36:48;18.40;41.40
10654;DHT22;5375;51.250;6.776;2023-03-12T01:39:14;18.40;41.40
10654;DHT22;5375;51.250;6.776;2023-03-12T01:41:40;18.40;41.40
10654;DHT22;5375;51.250;6.776;2023-03-12T01:44:06;18.30;41.30
10654;DHT22;5375;51.250;6.776;2023-03-12T01:46:40;18.40;41.30
10654;DHT22;5375;51.250;6.776;2023-03-12T01:49:17;18.50;41.30
10654;DHT22;5375;51.250;6.776;2023-03-12T01:52:03;18.40;41.30
10654;DHT22;5375;51.250;6.776;2023-03-12T01:54:34;18.40;41.30
10654;DHT22;5375;51.250;6.776;2023-03-12T01:57:04;18.40;41.30
10654;DHT22;5375;51.250;6.776;2023-03-12T01:59:36;18.40;41.40
10654;DHT22;5375;51.250;6.776;2023-03-12T02:02:04;18.40;41.30
10654;DHT22;5375;51.250;6.776;2023-03-12T02:04:32;18.40;41.20
10654;DHT22;5375;51.250;6.776;2023-03-12T02:07:10;18.50;41.30
10654;DHT22;5375;51.250;6.776;2023-03-12T02:09:38;18.40;41.20
10654;DHT22;5375;51.250;6.776;2023-03-12T02:12:05;18.40;41.20
10654;DHT22;5375;51.250;6.776;2023-03-12T02:14:31;18.40;41.20
10654;DHT22;5375;51.250;6.776;2023-03-12T02:16:57;18.40;41.10
10654;DHT22;5375;51.250;6.776;2023-03-12T02:19:38;18.40;41.10
10654;DHT22;5375;51.250;6.776;2023-03-12T02:22:08;18.40;41.10
10654;DHT22;5375;51.250;6.776;2023-03-12T02:24:54;18.40;41.10
10654;DHT22;5375;51.250;6.776;2023-03-12T02:27:22;18.40;41.10
10654;DHT22;5375;51.250;6.776;2023-03-12T02:29:48;18.30;41.00
10654;DHT22;5375;51.250;6.776;2023-03-12T02:32:22;18.20;41.00
10654;DHT22;5375;51.250;6.776;2023-03-12T02:34:48;18.30;41.00
10654;DHT22;5375;51.250;6.776;2023-03-12T02:37:15;18.30;41.20
10654;DHT22;5375;51.250;6.776;2023-03-12T02:39:42;18.30;41.00
10654;DHT22;5375;51.250;6.776;2023-03-12T02:42:08;18.30;41.00
10654;DHT22;5375;51.250;6.776;2023-03-12T02:44:34;18.20;40.90
10654;DHT22;5375;51.250;6.776;2023-03-12T02:47:02;18.30;40.90
10654;DHT22;5375;51.250;6.776;2023-03-12T02:49:30;18.30;40.90
10654;DHT22;5375;51.250;6.776;2023-03-12T02:51:56;18.30;40.80
10654;DHT22;5375;51.250;6.776;2023-03-12T02:54:23;18.30;40.80
10654;DHT22;5375;51.250;6.776;2023-03-12T02:56:49;18.30;40.80
10654;DHT22;5375;51.250;6.776;2023-03-12T02:59:15;18.30;40.80
10654;DHT22;5375;51.250;6.776;2023-03-12T03:01:42;18.40;40.90
10654;DHT22;5375;51.250;6.776;2023-03-12T03:04:09;18.30;40.80
10654;DHT22;5375;51.250;6.776;2023-03-12T03:06:36;18.30;40.80
10654;DHT22;5375;51.250;6.776;2023-03-12T03:09:03;18.30;40.80
10654;DHT22;5375;51.250;6.776;2023-03-12T03:11:28;18.30;40.70
10654;DHT22;5375;51.250;6.776;2023-03-12T03:13:54;18.30;40.80
10654;DHT22;5375;51.250;6.776;2023-03-12T03:16:20;18.30;40.70
10654;DHT22;5375;51.250;6.776;2023-03-12T03:18:46;18.30;40.70
10654;DHT22;5375;51.250;6.776;2023-03-12T03:21:12;18.30;40.90
10654;DHT22;5375;51.250;6.776;2023-03-12T03:23:45;18.40;41.00
10654;DHT22;5375;51.250;6.776;2023-03-12T03:26:11;18.40;41.10
10654;DHT22;5375;51.250;6.776;2023-03-12T03:28:37;18.40;41.90
10654;DHT22;5375;51.250;6.776;2023-03-12T03:31:03;18.30;41.40
10654;DHT22;5375;51.250;6.776;2023-03-12T03:33:32;18.30;41.60
10654;DHT22;5375;51.250;6.776;2023-03-12T03:35:58;18.50;41.70
10654;DHT22;5375;51.250;6.776;2023-03-12T03:38:26;18.50;41.70
10654;DHT22;5375;51.250;6.776;2023-03-12T03:40:52;18.40;41.50
10654;DHT22;5375;51.250;6.776;2023-03-12T03:43:18;18.40;41.50
10654;DHT22;5375;51.250;6.776;2023-03-12T03:45:44;18.30;41.30
10654;DHT22;5375;51.250;6.776;2023-03-12T03:48:10;18.40;41.40
10654;DHT22;5375;51.250;6.776;2023-03-12T03:50:40;18.30;41.20
10654;DHT22;5375;51.250;6.776;2023-03-12T03:53:06;18.30;41.10
10654;DHT22;5375;51.250;6.776;2023-03-12T03:55:37;18.30;41.10
10654;DHT22;5375;51.250;6.776;2023-03-12T03:58:03;18.30;41.10
10654;DHT22;5375;51.250;6.776;2023-03-12T04:00:28;18.20;41.00
10654;DHT22;5375;51.250;6.776;2023-03-12T04:02:54;18.30;41.00
10654;DHT22;5375;51.250;6.776;2023-03-12T04:05:20;18.30;41.00
10654;DHT22;5375;51.250;6.776;2023-03-12T04:07:46;18.30;41.00
10654;DHT22;5375;51.250;6.776;2023-03-12T04:10:11;18.30;41.00
10654;DHT22;5375;51.250;6.776;2023-03-12T04:12:37;18.30;40.90
10654;DHT22;5375;51.250;6.776;2023-03-12T04:15:03;18.30;40.80
10654;DHT22;5375;51.250;6.776;2023-03-12T04:17:29;18.30;40.80
10654;DHT22;5375;51.250;6.776;2023-03-12T04:19:55;18.30;40.80
10654;DHT22;5375;51.250;6.776;2023-03-12T04:22:20;18.30;40.80
10654;DHT22;5375;51.250;6.776;2023-03-12T04:24:46;18.30;40.70
10654;DHT22;5375;51.250;6.776;2023-03-12T04:27:11;18.20;40.70
10654;DHT22;5375;51.250;6.776;2023-03-12T04:29:37;18.30;40.70
10654;DHT22;5375;51.250;6.776;2023-03-12T04:32:05;18.30;40.60
10654;DHT22;5375;51.250;6.776;2023-03-12T04:34:31;18.20;40.60
10654;DHT22;5375;51.250;6.776;2023-03-12T04:36:59;18.20;40.70
10654;DHT22;5375;51.250;6.776;2023-03-12T04:39:24;18.30;40.60
10654;DHT22;5375;51.250;6.776;2023-03-12T04:41:50;18.30;40.50
10654;DHT22;5375;51.250;6.776;2023-03-12T04:44:16;18.30;40.40
10654;DHT22;5375;51.250;6.776;2023-03-12T04:46:41;18.30;40.40
10654;DHT22;5375;51.250;6.776;2023-03-12T04:49:07;18.30;40.40
10654;DHT22;5375;51.250;6.776;2023-03-12T04:51:33;18.20;40.30
10654;DHT22;5375;51.250;6.776;2023-03-12T04:53:58;18.30;40.40
10654;DHT22;5375;51.250;6.776;2023-03-12T04:56:24;18.30;40.30
10654;DHT22;5375;51.250;6.776;2023-03-12T04:58:51;18.30;40.20
10654;DHT22;5375;51.250;6.776;2023-03-12T05:01:26;18.30;40.40
10654;DHT22;5375;51.250;6.776;2023-03-12T05:03:52;18.40;40.80
10654;DHT22;5375;51.250;6.776;2023-03-12T05:06:18;18.40;41.00
10654;DHT22;5375;51.250;6.776;2023-03-12T05:08:44;18.40;41.10
10654;DHT22;5375;51.250;6.776;2023-03-12T05:11:10;18.50;41.30
10654;DHT22;5375;51.250;6.776;2023-03-12T05:13:35;18.50;41.40
10654;DHT22;5375;51.250;6.776;2023-03-12T05:16:01;18.50;41.70
10654;DHT22;5375;51.250;6.776;2023-03-12T05:18:27;18.50;41.70
10654;DHT22;5375;51.250;6.776;2023-03-12T05:21:06;18.60;41.80
10654;DHT22;5375;51.250;6.776;2023-03-12T05:23:32;18.60;42.00
10654;DHT22;5375;51.250;6.776;2023-03-12T05:25:58;18.60;41.60
10654;DHT22;5375;51.250;6.776;2023-03-12T05:28:24;18.60;41.00
10654;DHT22;5375;51.250;6.776;2023-03-12T05:31:08;18.70;40.70
10654;DHT22;5375;51.250;6.776;2023-03-12T05:33:34;18.70;40.50
10654;DHT22;5375;51.250;6.776;2023-03-12T05:36:00;18.60;40.30
10654;DHT22;5375;51.250;6.776;2023-03-12T05:38:25;18.70;40.30
10654;DHT22;5375;51.250;6.776;2023-03-12T05:40:55;18.70;40.20
10654;DHT22;5375;51.250;6.776;2023-03-12T05:43:22;18.70;40.20
10654;DHT22;5375;51.250;6.776;2023-03-12T05:45:47;18.70;40.10
10654;DHT22;5375;51.250;6.776;2023-03-12T05:48:13;18.70;40.20
10654;DHT22;5375;51.250;6.776;2023-03-12T05:50:39;18.70;40.10
10654;DHT22;5375;51.250;6.776;2023-03-12T05:53:05;18.70;40.00
10654;DHT22;5375;51.250;6.776;2023-03-12T05:55:34;18.70;40.00
10654;DHT22;5375;51.250;6.776;2023-03-12T05:58:00;18.70;39.90
10654;DHT22;5375;51.250;6.776;2023-03-12T06:00:26;18.80;39.90
10654;DHT22;5375;51.250;6.776;2023-03-12T06:02:52;18.70;39.90
10654;DHT22;5375;51.250;6.776;2023-03-12T06:05:17;18.80;39.90
10654;DHT22;5375;51.250;6.776;2023-03-12T06:07:43;18.70;39.80
10654;DHT22;5375;51.250;6.776;2023-03-12T06:10:09;18.70;39.80
10654;DHT22;5375;51.250;6.776;2023-03-12T06:12:35;18.70;39.80
10654;DHT22;5375;51.250;6.776;2023-03-12T06:15:01;18.70;39.80
10654;DHT22;5375;51.250;6.776;2023-03-12T06:17:28;18.70;39.80
10654;DHT22;5375;51.250;6.776;2023-03-12T06:19:54;18.70;39.80
10654;DHT22;5375;51.250;6.776;2023-03-12T06:22:19;18.60;39.70
10654;DHT22;5375;51.250;6.776;2023-03-12T06:24:45;18.70;39.80
10654;DHT22;5375;51.250;6.776;2023-03-12T06:27:16;18.70;39.80
10654;DHT22;5375;51.250;6.776;2023-03-12T06:29:42;18.70;39.80
10654;DHT22;5375;51.250;6.776;2023-03-12T06:32:08;18.70;39.80
10654;DHT22;5375;51.250;6.776;2023-03-12T06:34:34;18.70;39.80
10654;DHT22;5375;51.250;6.776;2023-03-12T06:36:59;18.70;39.80
10654;DHT22;5375;51.250;6.776;2023-03-12T06:39:26;18.70;39.80
10654;DHT22;5375;51.250;6.776;2023-03-12T06:41:51;18.70;39.80
10654;DHT22;5375;51.250;6.776;2023-03-12T06:44:17;18.70;39.80
10654;DHT22;5375;51.250;6.776;2023-03-12T06:46:43;18.70;39.80
10654;DHT22;5375;51.250;6.776;2023-03-12T06:49:09;18.70;39.80
10654;DHT22;5375;51.250;6.776;2023-03-12T06:51:35;18.70;39.80
10654;DHT22;5375;51.250;6.776;2023-03-12T06:54:01;18.70;39.80
10654;DHT22;5375;51.250;6.776;2023-03-12T06:56:28;18.70;39.90
10654;DHT22;5375;51.250;6.776;2023-03-12T06:58:54;18.70;39.90
10654;DHT22;5375;51.250;6.776;2023-03-12T07:01:19;18.70;39.90
10654;DHT22;5375;51.250;6.776;2023-03-12T07:03:45;18.60;39.90
10654;DHT22;5375;51.250;6.776;2023-03-12T07:06:16;18.60;40.00
10654;DHT22;5375;51.250;6.776;2023-03-12T07:08:42;18.70;40.70
10654;DHT22;5375;51.250;6.776;2023-03-12T07:11:08;18.70;40.10
10654;DHT22;5375;51.250;6.776;2023-03-12T07:13:34;18.70;40.10
10654;DHT22;5375;51.250;6.776;2023-03-12T07:16:01;18.70;40.20
10654;DHT22;5375;51.250;6.776;2023-03-12T07:18:29;18.70;40.20
10654;DHT22;5375;51.250;6.776;2023-03-12T07:20:55;18.70;40.20
10654;DHT22;5375;51.250;6.776;2023-03-12T07:23:21;18.70;40.20
10654;DHT22;5375;51.250;6.776;2023-03-12T07:25:47;18.70;40.20
10654;DHT22;5375;51.250;6.776;2023-03-12T07:28:13;18.70;40.20
10654;DHT22;5375;51.250;6.776;2023-03-12T07:30:40;18.70;40.20
10654;DHT22;5375;51.250;6.776;2023-03-12T07:33:10;18.80;40.20
10654;DHT22;5375;51.250;6.776;2023-03-12T07:35:37;18.70;40.20
10654;DHT22;5375;51.250;6.776;2023-03-12T07:38:04;18.70;40.20
10654;DHT22;5375;51.250;6.776;2023-03-12T07:40:30;18.70;40.30
10654;DHT22;5375;51.250;6.776;2023-03-12T07:45:23;18.70;40.40
10654;DHT22;5375;51.250;6.776;2023-03-12T07:47:49;18.70;40.40
10654;DHT22;5375;51.250;6.776;2023-03-12T07:50:16;18.70;40.50
10654;DHT22;5375;51.250;6.776;2023-03-12T07:52:43;18.70;40.50
10654;DHT22;5375;51.250;6.776;2023-03-12T07:55:11;18.70;40.50
10654;DHT22;5375;51.250;6.776;2023-03-12T07:57:37;18.70;40.50
10654;DHT22;5375;51.250;6.776;2023-03-12T08:00:04;18.70;40.50
10654;DHT22;5375;51.250;6.776;2023-03-12T08:02:32;18.70;40.50
10654;DHT22;5375;51.250;6.776;2023-03-12T08:04:58;18.70;40.50
10654;DHT22;5375;51.250;6.776;2023-03-12T08:07:24;18.70;40.50
10654;DHT22;5375;51.250;6.776;2023-03-12T08:09:49;18.70;40.50
10654;DHT22;5375;51.250;6.776;2023-03-12T08:12:15;18.70;40.50
10654;DHT22;5375;51.250;6.776;2023-03-12T08:14:40;18.70;40.50
10654;DHT22;5375;51.250;6.776;2023-03-12T08:17:06;18.70;40.50
10654;DHT22;5375;51.250;6.776;2023-03-12T08:19:32;18.70;40.70
10654;DHT22;5375;51.250;6.776;2023-03-12T08:21:57;18.70;40.70
10654;DHT22;5375;51.250;6.776;2023-03-12T08:24:23;18.80;40.80
10654;DHT22;5375;51.250;6.776;2023-03-12T08:26:49;18.70;40.70
10654;DHT22;5375;51.250;6.776;2023-03-12T08:29:15;18.90;40.90
10654;DHT22;5375;51.250;6.776;2023-03-12T08:31:44;18.80;40.80
10654;DHT22;5375;51.250;6.776;2023-03-12T08:34:10;18.80;40.80
10654;DHT22;5375;51.250;6.776;2023-03-12T08:36:35;18.80;40.80
10654;DHT22;5375;51.250;6.776;2023-03-12T08:39:02;18.80;40.80
10654;DHT22;5375;51.250;6.776;2023-03-12T08:41:28;18.80;40.80
10654;DHT22;5375;51.250;6.776;2023-03-12T08:43:54;18.80;41.00
10654;DHT22;5375;51.250;6.776;2023-03-12T08:46:20;18.80;40.90
10654;DHT22;5375;51.250;6.776;2023-03-12T08:48:46;18.80;40.90
10654;DHT22;5375;51.250;6.776;2023-03-12T08:51:12;18.80;41.00
10654;DHT22;5375;51.250;6.776;2023-03-12T08:53:37;18.80;41.00
10654;DHT22;5375;51.250;6.776;2023-03-12T08:56:04;18.90;41.00
10654;DHT22;5375;51.250;6.776;2023-03-12T08:58:30;18.80;41.10
10654;DHT22;5375;51.250;6.776;2023-03-12T09:00:57;18.70;41.00
10654;DHT22;5375;51.250;6.776;2023-03-12T09:03:23;18.80;41.10
10654;DHT22;5375;51.250;6.776;2023-03-12T09:05:50;18.80;41.10
10654;DHT22;5375;51.250;6.776;2023-03-12T09:08:16;18.80;41.20
10654;DHT22;5375;51.250;6.776;2023-03-12T09:10:47;18.80;41.20
10654;DHT22;5375;51.250;6.776;2023-03-12T09:13:14;18.80;41.20
10654;DHT22;5375;51.250;6.776;2023-03-12T09:15:40;18.70;41.30
10654;DHT22;5375;51.250;6.776;2023-03-12T09:18:06;18.80;41.30
10654;DHT22;5375;51.250;6.776;2023-03-12T09:20:31;18.80;41.30
10654;DHT22;5375;51.250;6.776;2023-03-12T09:22:57;18.80;41.40
10654;DHT22;5375;51.250;6.776;2023-03-12T09:25:22;18.90;41.40
10654;DHT22;5375;51.250;6.776;2023-03-12T09:27:48;18.80;41.40
10654;DHT22;5375;51.250;6.776;2023-03-12T09:30:17;18.80;41.70
10654;DHT22;5375;51.250;6.776;2023-03-12T09:32:44;18.80;41.50
10654;DHT22;5375;51.250;6.776;2023-03-12T09:35:11;18.80;41.60
10654;DHT22;5375;51.250;6.776;2023-03-12T09:37:37;18.80;41.70
10654;DHT22;5375;51.250;6.776;2023-03-12T09:40:04;18.90;41.70
10654;DHT22;5375;51.250;6.776;2023-03-12T09:42:38;18.80;41.80
10654;DHT22;5375;51.250;6.776;2023-03-12T09:45:07;18.80;41.90
10654;DHT22;5375;51.250;6.776;2023-03-12T09:47:45;18.80;41.90
10654;DHT22;5375;51.250;6.776;2023-03-12T09:50:48;18.80;42.00
10654;DHT22;5375;51.250;6.776;2023-03-12T09:53:37;18.80;42.20
10654;DHT22;5375;51.250;6.776;2023-03-12T09:56:13;18.80;42.30
10654;DHT22;5375;51.250;6.776;2023-03-12T09:58:39;18.80;42.30
10654;DHT22;5375;51.250;6.776;2023-03-12T10:02:30;18.80;42.40
10654;DHT22;5375;51.250;6.776;2023-03-12T10:04:40;18.80;42.40
10654;DHT22;5375;51.250;6.776;2023-03-12T10:24:11;18.80;42.80
10654;DHT22;5375;51.250;6.776;2023-03-12T10:26:43;18.80;42.90
10654;DHT22;5375;51.250;6.776;2023-03-12T10:29:23;18.80;42.90
10654;DHT22;5375;51.250;6.776;2023-03-12T10:31:58;18.80;42.90
10654;DHT22;5375;51.250;6.776;2023-03-12T10:37:15;18.80;43.00
10654;DHT22;5375;51.250;6.776;2023-03-12T10:39:41;18.80;43.00
10654;DHT22;5375;51.250;6.776;2023-03-12T10:42:19;18.80;43.10
10654;DHT22;5375;51.250;6.776;2023-03-12T10:44:55;18.90;43.20
10654;DHT22;5375;51.250;6.776;2023-03-12T10:47:29;18.80;43.40
10654;DHT22;5375;51.250;6.776;2023-03-12T10:52:46;18.80;43.40
10654;DHT22;5375;51.250;6.776;2023-03-12T10:55:25;18.80;43.50
10654;DHT22;5375;51.250;6.776;2023-03-12T10:57:52;18.80;43.50
10654;DHT22;5375;51.250;6.776;2023-03-12T11:00:26;18.90;43.50
10654;DHT22;5375;51.250;6.776;2023-03-12T11:03:02;18.90;43.60
10654;DHT22;5375;51.250;6.776;2023-03-12T11:05:31;18.90;43.60
10654;DHT22;5375;51.250;6.776;2023-03-12T11:07:58;18.90;43.70
10654;DHT22;5375;51.250;6.776;2023-03-12T11:10:46;19.00;43.80
10654;DHT22;5375;51.250;6.776;2023-03-12T11:15:47;18.90;43.80
10654;DHT22;5375;51.250;6.776;2023-03-12T11:20:46;18.90;43.90
10654;DHT22;5375;51.250;6.776;2023-03-12T11:23:27;18.90;43.90
10654;DHT22;5375;51.250;6.776;2023-03-12T11:26:00;19.00;43.90
10654;DHT22;5375;51.250;6.776;2023-03-12T11:28:48;19.00;44.00
10654;DHT22;5375;51.250;6.776;2023-03-12T11:31:36;19.00;44.00
10654;DHT22;5375;51.250;6.776;2023-03-12T11:34:06;19.00;44.00
10654;DHT22;5375;51.250;6.776;2023-03-12T11:37:01;19.00;44.10
10654;DHT22;5375;51.250;6.776;2023-03-12T11:45:39;19.00;44.20
10654;DHT22;5375;51.250;6.776;2023-03-12T11:53:51;19.00;44.30
10654;DHT22;5375;51.250;6.776;2023-03-12T11:56:33;19.00;44.40
10654;DHT22;5375;51.250;6.776;2023-03-12T12:04:50;19.00;44.40
10654;DHT22;5375;51.250;6.776;2023-03-12T12:13:19;19.00;44.60
10654;DHT22;5375;51.250;6.776;2023-03-12T12:27:25;19.00;45.20
10654;DHT22;5375;51.250;6.776;2023-03-12T12:32:58;19.00;45.40
10654;DHT22;5375;51.250;6.776;2023-03-12T12:38:00;19.10;45.60
10654;DHT22;5375;51.250;6.776;2023-03-12T12:40:39;19.10;45.70
10654;DHT22;5375;51.250;6.776;2023-03-12T12:45:39;19.10;45.90
10654;DHT22;5375;51.250;6.776;2023-03-12T12:48:15;19.00;45.90
10654;DHT22;5375;51.250;6.776;2023-03-12T12:50:43;19.10;46.00
10654;DHT22;5375;51.250;6.776;2023-03-12T12:53:24;19.10;46.10
10654;DHT22;5375;51.250;6.776;2023-03-12T12:59:08;19.10;46.30
10654;DHT22;5375;51.250;6.776;2023-03-12T13:01:40;19.10;46.30
10654;DHT22;5375;51.250;6.776;2023-03-12T13:04:15;19.10;46.30
10654;DHT22;5375;51.250;6.776;2023-03-12T13:14:53;19.10;46.00
10654;DHT22;5375;51.250;6.776;2023-03-12T13:17:21;19.10;46.20
10654;DHT22;5375;51.250;6.776;2023-03-12T13:19:49;19.10;45.90
10654;DHT22;5375;51.250;6.776;2023-03-12T13:22:21;19.10;45.90
10654;DHT22;5375;51.250;6.776;2023-03-12T13:25:35;19.00;46.10
10654;DHT22;5375;51.250;6.776;2023-03-12T13:28:29;19.00;46.60
10654;DHT22;5375;51.250;6.776;2023-03-12T13:33:47;19.00;47.20
10654;DHT22;5375;51.250;6.776;2023-03-12T13:41:39;18.90;47.70
10654;DHT22;5375;51.250;6.776;2023-03-12T13:47:20;18.90;48.20
10654;DHT22;5375;51.250;6.776;2023-03-12T13:50:07;18.90;48.30
10654;DHT22;5375;51.250;6.776;2023-03-12T13:52:45;18.90;48.40
10654;DHT22;5375;51.250;6.776;2023-03-12T13:57:44;18.80;48.70
10654;DHT22;5375;51.250;6.776;2023-03-12T14:03:08;18.80;48.90
10654;DHT22;5375;51.250;6.776;2023-03-12T14:05:56;18.80;49.10
10654;DHT22;5375;51.250;6.776;2023-03-12T14:11:27;18.80;49.10
10654;DHT22;5375;51.250;6.776;2023-03-12T14:16:55;18.80;49.30
10654;DHT22;5375;51.250;6.776;2023-03-12T14:19:27;18.80;49.30
10654;DHT22;5375;51.250;6.776;2023-03-12T14:21:55;18.80;49.20
10654;DHT22;5375;51.250;6.776;2023-03-12T14:24:41;18.80;49.30
10654;DHT22;5375;51.250;6.776;2023-03-12T14:27:15;18.80;49.80
10654;DHT22;5375;51.250;6.776;2023-03-12T14:32:24;18.80;49.70
10654;DHT22;5375;51.250;6.776;2023-03-12T14:35:07;18.80;51.10
10654;DHT22;5375;51.250;6.776;2023-03-12T14:38:27;18.90;52.00
10654;DHT22;5375;51.250;6.776;2023-03-12T14:40:56;18.90;51.80
10654;DHT22;5375;51.250;6.776;2023-03-12T14:43:28;19.00;51.60
10654;DHT22;5375;51.250;6.776;2023-03-12T14:45:59;19.00;51.30
10654;DHT22;5375;51.250;6.776;2023-03-12T14:48:30;19.00;51.10
10654;DHT22;5375;51.250;6.776;2023-03-12T14:50:57;19.10;50.50
10654;DHT22;5375;51.250;6.776;2023-03-12T14:53:24;19.10;50.30
10654;DHT22;5375;51.250;6.776;2023-03-12T14:56:11;19.10;50.10
10654;DHT22;5375;51.250;6.776;2023-03-12T14:58:45;19.00;50.00
10654;DHT22;5375;51.250;6.776;2023-03-12T15:01:16;19.00;49.70
10654;DHT22;5375;51.250;6.776;2023-03-12T15:03:48;19.00;49.60
10654;DHT22;5375;51.250;6.776;2023-03-12T15:06:31;19.00;49.60
10654;DHT22;5375;51.250;6.776;2023-03-12T15:08:58;19.00;49.40
10654;DHT22;5375;51.250;6.776;2023-03-12T15:11:29;19.10;49.50
10654;DHT22;5375;51.250;6.776;2023-03-12T15:14:01;19.00;49.40
10654;DHT22;5375;51.250;6.776;2023-03-12T15:16:29;19.00;49.30
10654;DHT22;5375;51.250;6.776;2023-03-12T15:18:55;19.00;49.20
10654;DHT22;5375;51.250;6.776;2023-03-12T15:21:21;19.00;49.20
10654;DHT22;5375;51.250;6.776;2023-03-12T15:23:47;19.00;49.30
10654;DHT22;5375;51.250;6.776;2023-03-12T15:26:27;19.00;49.10
10654;DHT22;5375;51.250;6.776;2023-03-12T15:29:02;19.00;49.00
10654;DHT22;5375;51.250;6.776;2023-03-12T15:31:46;19.00;49.00
10654;DHT22;5375;51.250;6.776;2023-03-12T15:34:27;19.00;48.90
10654;DHT22;5375;51.250;6.776;2023-03-12T15:36:57;19.00;48.90
10654;DHT22;5375;51.250;6.776;2023-03-12T15:39:30;19.00;48.80
10654;DHT22;5375;51.250;6.776;2023-03-12T15:42:06;19.00;48.90
10654;DHT22;5375;51.250;6.776;2023-03-12T15:47:20;19.00;48.70
10654;DHT22;5375;51.250;6.776;2023-03-12T15:49:56;19.00;48.50
10654;DHT22;5375;51.250;6.776;2023-03-12T15:52:26;19.00;48.60
10654;DHT22;5375;51.250;6.776;2023-03-12T15:57:51;19.00;48.90
10654;DHT22;5375;51.250;6.776;2023-03-12T16:00:23;19.00;49.10
10654;DHT22;5375;51.250;6.776;2023-03-12T16:05:18;19.00;49.20
10654;DHT22;5375;51.250;6.776;2023-03-12T16:07:46;19.10;49.30
10654;DHT22;5375;51.250;6.776;2023-03-12T16:10:14;19.10;49.20
10654;DHT22;5375;51.250;6.776;2023-03-12T16:12:42;19.10;49.20
10654;DHT22;5375;51.250;6.776;2023-03-12T16:15:31;19.10;49.20
10654;DHT22;5375;51.250;6.776;2023-03-12T16:17:58;19.10;49.20
10654;DHT22;5375;51.250;6.776;2023-03-12T16:20:23;19.10;49.30
10654;DHT22;5375;51.250;6.776;2023-03-12T16:22:49;19.20;49.30
10654;DHT22;5375;51.250;6.776;2023-03-12T16:25:15;19.20;49.40
10654;DHT22;5375;51.250;6.776;2023-03-12T16:27:50;19.20;49.40
10654;DHT22;5375;51.250;6.776;2023-03-12T16:30:28;19.20;49.30
10654;DHT22;5375;51.250;6.776;2023-03-12T16:32:55;19.20;49.30
10654;DHT22;5375;51.250;6.776;2023-03-12T16:35:21;19.20;49.40
10654;DHT22;5375;51.250;6.776;2023-03-12T16:37:47;19.20;49.30
10654;DHT22;5375;51.250;6.776;2023-03-12T16:40:14;19.20;49.40
10654;DHT22;5375;51.250;6.776;2023-03-12T16:42:50;19.20;49.40
10654;DHT22;5375;51.250;6.776;2023-03-12T16:45:19;19.20;49.40
10654;DHT22;5375;51.250;6.776;2023-03-12T16:47:47;19.20;49.40
10654;DHT22;5375;51.250;6.776;2023-03-12T16:50:20;19.20;49.40
10654;DHT22;5375;51.250;6.776;2023-03-12T16:52:47;19.30;49.50
10654;DHT22;5375;51.250;6.776;2023-03-12T16:55:15;19.30;49.40
10654;DHT22;5375;51.250;6.776;2023-03-12T16:57:45;19.30;49.50
10654;DHT22;5375;51.250;6.776;2023-03-12T17:00:16;19.20;49.40
10654;DHT22;5375;51.250;6.776;2023-03-12T17:02:47;19.30;49.50
10654;DHT22;5375;51.250;6.776;2023-03-12T17:05:13;19.30;49.60
10654;DHT22;5375;51.250;6.776;2023-03-12T17:07:39;19.30;49.80
10654;DHT22;5375;51.250;6.776;2023-03-12T17:10:08;19.30;49.70
10654;DHT22;5375;51.250;6.776;2023-03-12T17:12:37;19.20;49.60
10654;DHT22;5375;51.250;6.776;2023-03-12T17:15:24;19.20;49.70
10654;DHT22;5375;51.250;6.776;2023-03-12T17:17:50;19.30;49.80
10654;DHT22;5375;51.250;6.776;2023-03-12T17:20:18;19.30;49.90
10654;DHT22;5375;51.250;6.776;2023-03-12T17:22:44;19.20;49.90
10654;DHT22;5375;51.250;6.776;2023-03-12T17:25:25;19.20;49.90
10654;DHT22;5375;51.250;6.776;2023-03-12T17:27:52;19.30;50.00
10654;DHT22;5375;51.250;6.776;2023-03-12T17:30:18;19.30;49.90
10654;DHT22;5375;51.250;6.776;2023-03-12T17:32:45;19.30;50.00
10654;DHT22;5375;51.250;6.776;2023-03-12T17:35:11;17.30;49.50
10654;DHT22;5375;51.250;6.776;2023-03-12T17:37:37;19.30;49.80
10654;DHT22;5375;51.250;6.776;2023-03-12T17:40:03;19.30;49.80
10654;DHT22;5375;51.250;6.776;2023-03-12T17:42:34;19.30;49.80
10654;DHT22;5375;51.250;6.776;2023-03-12T17:45:01;19.30;49.80
10654;DHT22;5375;51.250;6.776;2023-03-12T17:47:27;19.40;49.80
10654;DHT22;5375;51.250;6.776;2023-03-12T17:49:53;19.40;49.80
10654;DHT22;5375;51.250;6.776;2023-03-12T17:52:19;19.40;49.80
10654;DHT22;5375;51.250;6.776;2023-03-12T17:54:45;19.40;49.70
10654;DHT22;5375;51.250;6.776;2023-03-12T17:57:10;19.40;49.70